Lennon, Michigan
Current Conditions -  °F | °C
As of 6:53 AM on Friday 19 Dec 2014 (Local Time) from KFNT Reporting Station
Overcast Overcast  
Wind Chill: 21°   Ceiling: 1300
Heat Index: 26°   Visibility: 10mi
Dew Point: 19°   Wind: 5mph
Humidity: 75%   Direction: 340°NNW
Pressure: 30.25"   Gusts: NA
Location:  42.99°N, 83.93°W
Report Text: KFNT 191153Z 34004KT 10SM OVC013 M03/M07 A3025 RMK AO2 SLP254 T10331072 11028 21033 53009
Loading
Personal Weather Stations






























Interactive Weather Map New forecast layout! Learn more

10-Day Weather Forecast

Advertisements
Track Severe Weather on mobile